Map

Track Data

SID SEASON NUMBER BASIN SUBBASIN NAME ISO_TIME NATURE LAT LON WMO_WIND WMO_PRES WMO_AGENCY TRACK_TYPE DIST2LAND LANDFALL IFLAG USA_AGENCY USA_ATCF_ID USA_LAT USA_LON USA_RECORD USA_STATUS USA_WIND USA_PRES USA_SSHS USA_R34_NE USA_R34_SE USA_R34_SW USA_R34_NW USA_R50_NE USA_R50_SE USA_R50_SW USA_R50_NW USA_R64_NE USA_R64_SE USA_R64_SW USA_R64_NW USA_POCI USA_ROCI USA_RMW USA_EYE TOKYO_LAT TOKYO_LON TOKYO_GRADE TOKYO_WIND TOKYO_PRES TOKYO_R50_DIR TOKYO_R50_LONG TOKYO_R50_SHORT TOKYO_R30_DIR TOKYO_R30_LONG TOKYO_R30_SHORT TOKYO_LAND CMA_LAT CMA_LON CMA_CAT CMA_WIND CMA_PRES HKO_LAT HKO_LON HKO_CAT HKO_WIND HKO_PRES NEWDELHI_LAT NEWDELHI_LON NEWDELHI_GRADE NEWDELHI_WIND NEWDELHI_PRES NEWDELHI_CI NEWDELHI_DP NEWDELHI_POCI REUNION_LAT REUNION_LON REUNION_TYPE REUNION_WIND REUNION_PRES REUNION_TNUM REUNION_CI REUNION_RMW REUNION_R34_NE REUNION_R34_SE REUNION_R34_SW REUNION_R34_NW REUNION_R50_NE REUNION_R50_SE REUNION_R50_SW REUNION_R50_NW REUNION_R64_NE REUNION_R64_SE REUNION_R64_SW REUNION_R64_NW BOM_LAT BOM_LON BOM_TYPE BOM_WIND BOM_PRES BOM_TNUM BOM_CI BOM_RMW BOM_R34_NE BOM_R34_SE BOM_R34_SW BOM_R34_NW BOM_R50_NE BOM_R50_SE BOM_R50_SW BOM_R50_NW BOM_R64_NE BOM_R64_SE BOM_R64_SW BOM_R64_NW BOM_ROCI BOM_POCI BOM_EYE BOM_POS_METHOD BOM_PRES_METHOD NADI_LAT NADI_LON NADI_CAT NADI_WIND NADI_PRES WELLINGTON_LAT WELLINGTON_LON WELLINGTON_WIND WELLINGTON_PRES DS824_LAT DS824_LON DS824_STAGE DS824_WIND DS824_PRES TD9636_LAT TD9636_LON TD9636_STAGE TD9636_WIND TD9636_PRES TD9635_LAT TD9635_LON TD9635_WIND TD9635_PRES TD9635_ROCI NEUMANN_LAT NEUMANN_LON NEUMANN_CLASS NEUMANN_WIND NEUMANN_PRES MLC_LAT MLC_LON MLC_CLASS MLC_WIND MLC_PRES USA_GUST BOM_GUST BOM_GUST_PER REUNION_GUST REUNION_GUST_PER USA_SEAHGT USA_SEARAD_NE USA_SEARAD_SE USA_SEARAD_SW USA_SEARAD_NW STORM_SPEED STORM_DIR
1956086S09062 1956 31 SI MM NOT_NAMED 1956-03-26 06:00:00 TS -9.40000 61.8000 main 1276 1268 O________OO___ jtwc_sh SH291956 -9.40000 61.8000 -1 -9.40000 61.8000 TC 25 -9.40000 61.8000 7 4 270
1956086S09062 1956 31 SI MM NOT_NAMED 1956-03-26 09:00:00 TS -9.39963 61.5990 main 1268 1261 P________PP___ SH291956 -9.39002 61.6000 -1 -9.39002 61.6000 TC 25 -9.41885 61.5969 7 4 268
1956086S09062 1956 31 SI MM NOT_NAMED 1956-03-26 12:00:00 TS -9.41337 61.3984 main 1261 1255 O________OP___ jtwc_sh SH291956 -9.40000 61.4000 -1 -9.40000 61.4000 TC 25 -9.44012 61.3951 7 4 263
1956086S09062 1956 31 SI MM NOT_NAMED 1956-03-26 15:00:00 TS -9.45043 61.1986 main 1244 1238 P________PP___ SH291956 -9.44249 61.2000 -1 -9.44249 61.2000 TC 25 -9.46632 61.1957 7 4 258
1956086S09062 1956 31 SI MM NOT_NAMED 1956-03-26 18:00:00 TS -9.50000 61.0000 main 1238 1232 O________OO___ jtwc_sh SH291956 -9.50000 61.0000 -1 -9.50000 61.0000 TC 25 -9.50000 61.0000 1 4 257
1956086S09062 1956 31 SI MM NOT_NAMED 1956-03-26 21:00:00 TS -9.54309 60.8027 main 1232 1215 P________PP___ SH291956 -9.54249 60.8000 -1 -9.54249 60.8000 TC 25 -9.54431 60.8080 1 4 255
1956086S09062 1956 31 SI MM NOT_NAMED 1956-03-27 00:00:00 TS -9.60163 60.6049 main 1215 1199 O________OP___ jtwc_sh SH291956 -9.60000 60.6000 -1 -9.60000 60.6000 TC 25 -9.60490 60.6149 1 4 250
1956086S09062 1956 31 SI MM NOT_NAMED 1956-03-27 03:00:00 TS -9.68600 60.4097 main 1199 1179 P________PP___ SH291956 -9.68498 60.4075 -1 -9.68498 60.4075 TC 25 -9.68805 60.4142 1 4 244
1956086S09062 1956 31 SI MM NOT_NAMED 1956-03-27 06:00:00 TS -9.80000 60.2000 main 1179 1154 O________OO___ jtwc_sh SH291956 -9.80000 60.2000 -1 -9.80000 60.2000 TC 25 -9.80000 60.2000 1 5 241
1956086S09062 1956 31 SI MM NOT_NAMED 1956-03-27 09:00:00 TS -9.93198 59.9584 main 1154 1116 P________PP___ SH291956 -9.93500 59.9575 -1 -9.93500 59.9575 TC 25 -9.92596 59.9603 1 6 239
1956086S09062 1956 31 SI MM NOT_NAMED 1956-03-27 12:00:00 TS -10.0942 59.7025 main 1116 1088 O________OP___ jtwc_sh SH291956 -10.1000 59.7000 -1 -10.1000 59.7000 TC 25 -10.0825 59.7074 1 6 236
1956086S09062 1956 31 SI MM NOT_NAMED 1956-03-27 15:00:00 TS -10.2759 59.4502 main 1088 1050 P________PP___ SH291956 -10.2775 59.4499 -1 -10.2775 59.4499 TC 25 -10.2728 59.4508 1 6 231
1956086S09062 1956 31 SI MM NOT_NAMED 1956-03-27 18:00:00 TS -10.5000 59.2000 main 1050 1020 O________OO___ jtwc_sh SH291956 -10.5000 59.2000 -1 -10.5000 59.2000 TC 25 -10.5000 59.2000 1 7 224
1956086S09062 1956 31 SI MM NOT_NAMED 1956-03-27 21:00:00 TS -10.7875 58.9456 main 1010 980 P________PP___ SH291956 -10.7850 58.9425 -1 -10.7850 58.9425 TC 25 -10.7925 58.9518 1 8 219
1956086S09062 1956 31 SI MM NOT_NAMED 1956-03-28 00:00:00 TS -11.1050 58.7043 main 980 950 O________OP___ jtwc_sh SH291956 -11.1000 58.7000 -1 -11.1000 58.7000 TC 25 -11.1150 58.7128 1 8 215
1956086S09062 1956 31 SI MM NOT_NAMED 1956-03-28 03:00:00 TS -11.4250 58.4875 main 950 920 P________PP___ SH291956 -11.4225 58.4850 -1 -11.4225 58.4850 TC 25 -11.4300 58.4924 1 7 214
1956086S09062 1956 31 SI MM NOT_NAMED 1956-03-28 06:00:00 TS -11.7000 58.3000 main 920 893 O________OO___ jtwc_sh SH291956 -11.7000 58.3000 -1 -11.7000 58.3000 TC 25 -11.7000 58.3000 1 6 217
1956086S09062 1956 31 SI MM NOT_NAMED 1956-03-28 09:00:00 TS -11.8770 58.1373 main 893 880 P________PP___ SH291956 -11.8800 58.1349 -1 -11.8800 58.1349 TC 25 -11.8711 58.1419 1 4 224
1956086S09062 1956 31 SI MM NOT_NAMED 1956-03-28 12:00:00 TS -11.9983 58.0041 main 880 866 O________OP___ jtwc_sh SH291956 -12.0000 58.0000 -1 -12.0000 58.0000 TC 25 -11.9949 58.0122 1 3 227
1956086S09062 1956 31 SI MM NOT_NAMED 1956-03-28 15:00:00 TS -12.0987 57.8954 main 866 853 P________PP___ SH291956 -12.1000 57.8925 -1 -12.1000 57.8925 TC 25 -12.0962 57.9014 1 3 224
1956086S09062 1956 31 SI MM NOT_NAMED 1956-03-28 18:00:00 TS -12.2000 57.8000 main 853 840 O________OO___ jtwc_sh SH291956 -12.2000 57.8000 -1 -12.2000 57.8000 TC 25 -12.2000 57.8000 1 3 218
1956086S09062 1956 31 SI MM NOT_NAMED 1956-03-28 21:00:00 TS -12.3399 57.7030 main 840 824 P________PP___ SH291956 -12.3425 57.7000 -1 -12.3425 57.7000 TC 25 -12.3346 57.7089 1 3 213
1956086S09062 1956 31 SI MM NOT_NAMED 1956-03-29 00:00:00 TS -12.4925 57.6074 main 824 809 O________OP___ jtwc_sh SH291956 -12.5000 57.6000 -1 -12.5000 57.6000 TC 25 -12.4774 57.6223 1 4 212
1956086S09062 1956 31 SI MM NOT_NAMED 1956-03-29 03:00:00 TS -12.6388 57.5131 main 809 791 P________PP___ SH291956 -12.6425 57.5075 -1 -12.6425 57.5075 TC 30 -12.6315 57.5245 1 4 209
1956086S09062 1956 31 SI MM NOT_NAMED 1956-03-29 06:00:00 TS -12.8462 57.4077 reunion main 791 770 O____O___OO___ jtwc_sh SH291956 -12.8000 57.4000 -1 -13.4000 57.5000 99 9.90000 -12.8000 57.4000 TC 35 -12.8000 57.4000 2 5 210
1956086S09062 1956 31 SI MM NOT_NAMED 1956-03-29 09:00:00 TS -13.0646 57.2588 main 770 739 P____P___PP___ SH291956 -12.9925 57.2725 -1 -13.5110 57.2401 99 -12.9925 57.2725 TC 35 -12.9856 57.2409 2 6 211
1956086S09062 1956 31 SI MM NOT_NAMED 1956-03-29 12:00:00 TS -13.3668 57.0859 main 739 702 O____P___OP___ jtwc_sh SH291956 -13.2000 57.1000 -1 -13.6209 56.9786 99 -13.2000 57.1000 TC 35 -13.1849 57.0524 2 7 220
1956086S09062 1956 31 SI MM NOT_NAMED 1956-03-29 15:00:00 TS -13.6089 56.7857 main 702 664 P____P___PP___ SH291956 -13.4000 56.8650 -1 -13.7285 56.7142 99 -13.4000 56.8650 TC 35 -13.3918 56.8377 2 8 235
1956086S09062 1956 31 SI MM NOT_NAMED 1956-03-29 18:00:00 TS -13.8144 56.4343 main 654 617 O____P___OO___ jtwc_sh SH291956 -13.6000 56.6000 -1 -13.8330 56.4454 99 -13.6000 56.6000 TC 35 -13.6000 56.6000 2 8 241
1956086S09062 1956 31 SI MM NOT_NAMED 1956-03-29 21:00:00 TS -13.9967 56.0780 main 617 583 P____P___PP___ SH291956 -13.8000 56.3574 -1 -13.9334 56.1710 99 -13.8000 56.3574 TC 35 -13.8162 56.3507 2 7 244
1956086S09062 1956 31 SI MM NOT_NAMED 1956-03-30 00:00:00 TS -14.1369 55.7671 main 583 547 O____P___OP___ jtwc_sh SH291956 -14.0000 56.1000 -1 -14.0287 55.8895 99 -14.0000 56.1000 TC 35 -14.0300 56.0801 2 6 245
1956086S09062 1956 31 SI MM NOT_NAMED 1956-03-30 03:00:00 TS -14.2651 55.4802 main 547 513 P____P___PP___ SH291956 -14.2075 55.8075 -1 -14.1179 55.5996 99 -14.2075 55.8075 TC 35 -14.2287 55.7945 2 6 246
1956086S09062 1956 31 SI MM NOT_NAMED 1956-03-30 06:00:00 TS -14.3767 55.2018 reunion main 513 479 O____O___OO___ jtwc_sh SH291956 -14.4000 55.5000 -1 -14.2000 55.3000 99 9.90000 -14.4000 55.5000 TC 35 -14.4000 55.5000 2 6 249
1956086S09062 1956 31 SI MM NOT_NAMED 1956-03-30 09:00:00 TS -14.4787 54.9110 main 479 445 P____P___PP___ SH291956 -14.5725 55.2000 -1 -14.2739 54.9899 99 -14.5725 55.2000 TC 35 -14.5408 55.2111 2 6 253
1956086S09062 1956 31 SI MM NOT_NAMED 1956-03-30 12:00:00 TS -14.5557 54.6123 main 445 413 O____P___OP___ jtwc_sh SH291956 -14.7000 54.9000 -1 -14.3378 54.6709 99 -14.7000 54.9000 TC 35 -14.6523 54.9149 2 6 258
1956086S09062 1956 31 SI MM NOT_NAMED 1956-03-30 15:00:00 TS -14.5998 54.3098 main 413 382 P____P___PP___ SH291956 -14.7650 54.5999 -1 -14.3896 54.3454 99 -14.7650 54.5999 TC 35 -14.7377 54.6112 2 6 263
1956086S09062 1956 31 SI MM NOT_NAMED 1956-03-30 18:00:00 TS -14.6235 53.9994 main 382 348 O____P___OO___ jtwc_sh SH291956 -14.8000 54.3000 -1 -14.4275 54.0156 99 -14.8000 54.3000 TC 35 -14.8000 54.3000 2 6 265
1956086S09062 1956 31 SI MM NOT_NAMED 1956-03-30 21:00:00 TS -14.6530 53.6800 main 348 316 P____P___PP___ SH291956 -14.8574 54.0075 -1 -14.4494 53.6838 99 -14.8574 54.0075 TC 35 -14.8625 53.9984 2 6 266
1956086S09062 1956 31 SI MM NOT_NAMED 1956-03-31 00:00:00 TS -14.6651 53.3486 main 306 274 O____P___OP___ jtwc_sh SH291956 -14.9000 53.7000 -1 -14.4534 53.3524 99 -14.9000 53.7000 TC 35 -14.9021 53.6876 2 7 270
1956086S09062 1956 31 SI MM NOT_NAMED 1956-03-31 03:00:00 TS -14.6543 53.0077 main 274 245 P____P___PP___ SH291956 -14.9149 53.3650 -1 -14.4376 53.0237 99 -14.9149 53.3650 TC 35 -14.9156 53.3579 2 7 274
1956086S09062 1956 31 SI MM NOT_NAMED 1956-03-31 06:00:00 TS -14.6157 52.6489 reunion main 235 204 O____O___OO___ jtwc_sh SH291956 -14.9000 53.0000 -1 -14.4000 52.7000 99 9.90000 -14.9000 53.0000 TC 35 -14.9000 53.0000 2 7 278
1956086S09062 1956 31 SI MM NOT_NAMED 1956-03-31 09:00:00 TS -14.5558 52.2698 main 204 169 P____P___PP___ SH291956 -14.8649 52.6150 -1 -14.3183 52.4244 99 -14.8649 52.6150 TC 35 -14.8743 52.5875 2 8 282
1956086S09062 1956 31 SI MM NOT_NAMED 1956-03-31 12:00:00 TS -14.4613 51.8868 main 169 144 O____P___OP___ jtwc_sh SH291956 -14.8000 52.2000 -1 -14.2113 52.1573 99 -14.8000 52.2000 TC 35 -14.8178 52.1500 2 8 287
1956086S09062 1956 31 SI MM NOT_NAMED 1956-03-31 15:00:00 TS -14.3292 51.5215 main 144 116 P____P___PP___ SH291956 -14.7226 51.7350 -1 -14.0871 51.8910 99 -14.7226 51.7350 TC 35 -14.7274 51.7126 2 7 293
1956086S09062 1956 31 SI MM NOT_NAMED 1956-03-31 18:00:00 TS -14.1648 51.1782 main 116 86 O____P___OO___ jtwc_sh SH291956 -14.6000 51.3000 -1 -13.9542 51.6178 99 -14.6000 51.3000 TC 35 -14.6000 51.3000 2 7 300
1956086S09062 1956 31 SI MM NOT_NAMED 1956-03-31 21:00:00 TS -13.9757 50.8797 main 86 54 P____P___PP___ SH291956 -14.4148 50.9851 -1 -13.8208 51.3300 99 -14.4148 50.9851 TC 35 -14.4109 50.9745 2 7 303
1956086S09062 1956 31 SI MM NOT_NAMED 1956-04-01 00:00:00 TS -13.7838 50.5703 main 54 21 O____P___OP___ jtwc_sh SH291956 -14.2000 50.7000 -1 -13.6952 51.0196 99 -14.2000 50.7000 TC 35 -14.1916 50.6722 2 8 300
1956086S09062 1956 31 SI MM NOT_NAMED 1956-04-01 03:00:00 TS -13.6040 50.2064 main 21 0 P____P___PP___ SH291956 -13.9849 50.3800 -1 -13.5855 50.6789 99 -13.9849 50.3800 TC 35 -13.9765 50.3589 2 8 293
1956086S09062 1956 31 SI MM NOT_NAMED 1956-04-01 06:00:00 TS -13.4646 49.7892 reunion main 0 0 O____O___OO___ jtwc_sh SH291956 -13.8000 50.0000 -1 -13.5000 50.3000 99 9.90000 -13.8000 50.0000 TC 35 -13.8000 50.0000 2 9 284
1956086S09062 1956 31 SI MM NOT_NAMED 1956-04-01 09:00:00 TS -13.3877 49.3145 main 0 0 P____P___PP___ SH291956 -13.6700 49.5225 -1 -13.4654 49.8325 99 -13.6700 49.5225 TC 35 -13.6866 49.5544 2 10 276
1956086S09062 1956 31 SI MM NOT_NAMED 1956-04-01 12:00:00 TS -13.3670 48.7976 main 0 0 O____P___OP___ jtwc_sh SH291956 -13.6000 49.0000 -1 -13.4515 49.3236 99 -13.6000 49.0000 TC 35 -13.6176 49.0599 2 10 270
1956086S09062 1956 31 SI MM NOT_NAMED 1956-04-01 15:00:00 TS -13.3884 48.2537 main 22 22 P____P___PP___ SH291956 -13.5699 48.5075 -1 -13.4546 48.7856 99 -13.5699 48.5075 TC 35 -13.5897 48.5355 2 11 265
1956086S09062 1956 31 SI MM NOT_NAMED 1956-04-01 18:00:00 TS -13.4549 47.6993 main 31 31 O____P___OO___ jtwc_sh SH291956 -13.6000 48.0000 -1 -13.4710 48.2312 99 -13.6000 48.0000 TC 35 -13.6000 48.0000 2 11 261
1956086S09062 1956 31 SI MM NOT_NAMED 1956-04-01 21:00:00 TS -13.5601 47.1500 main 76 87 P____P___PP___ SH291956 -13.6925 47.4501 -1 -13.4971 47.6729 99 -13.6925 47.4501 TC 35 -13.6596 47.4463 2 11 258
1956086S09062 1956 31 SI MM NOT_NAMED 1956-04-02 00:00:00 TS -13.6686 46.6306 main 140 140 O____P___OP___ jtwc_sh SH291956 -13.8000 46.9000 -1 -13.5296 47.1232 99 -13.8000 46.9000 TC 35 -13.7504 46.8909 2 10 260
1956086S09062 1956 31 SI MM NOT_NAMED 1956-04-02 03:00:00 TS -13.7365 46.1644 main 178 178 P____P___PP___ SH291956 -13.8725 46.3700 -1 -13.5649 46.5947 99 -13.8725 46.3700 TC 35 -13.8409 46.3650 2 9 263
1956086S09062 1956 31 SI MM NOT_NAMED 1956-04-02 06:00:00 TS -13.7756 45.7496 reunion main 203 203 O____O___OO___ jtwc_sh SH291956 -13.9000 45.9000 -1 -13.6000 46.1000 99 9.90000 -13.9000 45.9000 TC 35 -13.9000 45.9000 2 8 266
1956086S09062 1956 31 SI MM NOT_NAMED 1956-04-02 09:00:00 TS -13.7864 45.3842 main 220 220 P____P___PP___ SH291956 -13.8649 45.5124 -1 -13.6212 45.6699 99 -13.8649 45.5124 TC 35 -13.8851 45.5554 2 7 269
1956086S09062 1956 31 SI MM NOT_NAMED 1956-04-02 12:00:00 TS -13.7831 45.0482 main 243 243 O____P___OP___ jtwc_sh SH291956 -13.8000 45.2000 -1 -13.6451 45.2674 99 -13.8000 45.2000 TC 35 -13.8364 45.2698 2 6 270
1956086S09062 1956 31 SI MM NOT_NAMED 1956-04-02 15:00:00 TS -13.7845 44.7188 main 250 250 P____P___PP___ SH291956 -13.7498 44.9650 -1 -13.6710 44.8901 99 -13.7498 44.9650 TC 35 -13.7696 44.9993 2 7 270
1956086S09062 1956 31 SI MM NOT_NAMED 1956-04-02 18:00:00 TS -13.7805 44.3794 main 257 257 O____P___OO___ jtwc_sh SH291956 -13.7000 44.7000 -1 -13.6980 44.5357 99 -13.7000 44.7000 TC 35 -13.7000 44.7000 2 7 271
1956086S09062 1956 31 SI MM NOT_NAMED 1956-04-02 21:00:00 TS -13.7670 43.9908 main 273 273 P____P___PP___ SH291956 -13.6501 44.2725 -1 -13.7253 44.2018 99 -13.6501 44.2725 TC 35 -13.6421 44.2905 2 8 272
1956086S09062 1956 31 SI MM NOT_NAMED 1956-04-03 00:00:00 TS -13.7482 43.6051 main 303 284 O____P___OP___ jtwc_sh SH291956 -13.6000 43.8000 -1 -13.7519 43.8860 99 -13.6000 43.8000 TC 35 -13.5854 43.8498 2 7 273
1956086S09062 1956 31 SI MM NOT_NAMED 1956-04-03 03:00:00 TS -13.7292 43.2621 main 284 253 P____P___PP___ SH291956 -13.5425 43.3775 -1 -13.7772 43.5862 99 -13.5425 43.3775 TC 35 -13.5359 43.4093 2 6 273
1956086S09062 1956 31 SI MM NOT_NAMED 1956-04-03 06:00:00 TS -13.7153 42.9518 reunion main 253 223 O____O___OO___ jtwc_sh SH291956 -13.5000 43.0000 -1 -13.8000 43.3000 99 9.90000 -13.5000 43.0000 TC 35 -13.5000 43.0000 2 6 272
1956086S09062 1956 31 SI MM NOT_NAMED 1956-04-03 09:00:00 TS -13.7126 42.6667 main 223 194 P____P___PP___ SH291956 -13.4924 42.6850 -1 -13.8186 43.0032 99 -13.4924 42.6850 TC 35 -13.4812 42.6642 2 5 270
1956086S09062 1956 31 SI MM NOT_NAMED 1956-04-03 12:00:00 TS -13.7161 42.3978 main 194 162 O____P___OP___ jtwc_sh SH291956 -13.5000 42.4000 -1 -13.8355 42.7222 99 -13.5000 42.4000 TC 35 -13.4771 42.3626 2 5 269
1956086S09062 1956 31 SI MM NOT_NAMED 1956-04-03 15:00:00 TS -13.7190 42.1281 main 162 140 P____P___PP___ SH291956 -13.5000 42.1000 -1 -13.8507 42.4557 99 -13.5000 42.1000 TC 35 -13.4844 42.0798 2 5 272
1956086S09062 1956 31 SI MM NOT_NAMED 1956-04-03 18:00:00 TS -13.7020 41.8659 main 140 108 O____P___OO___ jtwc_sh SH291956 -13.5000 41.8000 -1 -13.8642 42.2026 99 -13.5000 41.8000 TC 35 -13.5000 41.8000 2 5 275
1956086S09062 1956 31 SI MM NOT_NAMED 1956-04-03 21:00:00 TS -13.6784 41.6002 main 108 87 P____P___PP___ SH291956 -13.4925 41.5000 -1 -13.8759 41.9616 99 -13.4925 41.5000 TC 35 -13.5209 41.5109 2 5 273
1956086S09062 1956 31 SI MM NOT_NAMED 1956-04-04 00:00:00 TS -13.6800 41.3540 main 87 65 O____P___OP___ jtwc_sh SH291956 -13.5000 41.2000 -1 -13.8857 41.7316 99 -13.5000 41.2000 TC 35 -13.5454 41.2125 2 4 269
1956086S09062 1956 31 SI MM NOT_NAMED 1956-04-04 03:00:00 TS -13.6880 41.1462 main 55 44 P____P___PP___ SH291956 -13.5401 40.9001 -1 -13.8938 41.5115 99 -13.5401 40.9001 TC 35 -13.5723 40.9078 2 4 255
1956086S09062 1956 31 SI MM NOT_NAMED 1956-04-04 06:00:00 TS -13.7714 41.0000 reunion main 48 48 O____O___OO___ jtwc_sh SH291956 -13.6000 40.6000 -1 -13.9000 41.3000 99 9.90000 -13.6000 40.6000 TC 35 -13.6000 40.6000 2 2 195
1956086S09062 1956 31 SI MM NOT_NAMED 1956-04-04 09:00:00 NR -13.9043 41.0961 main 55 34 _____P________ SH291956 -1 -13.9043 41.0961 99 TC 2 2 216
1956086S09062 1956 31 SI MM NOT_NAMED 1956-04-04 12:00:00 NR -13.9069 40.8987 main 34 15 _____P________ -1 -13.9069 40.8987 99 2 4 269
1956086S09062 1956 31 SI MM NOT_NAMED 1956-04-04 15:00:00 NR -13.9081 40.7070 main 15 0 _____P________ -1 -13.9081 40.7070 99 2 4 270
1956086S09062 1956 31 SI MM NOT_NAMED 1956-04-04 18:00:00 NR -13.9080 40.5199 main 0 0 _____P________ -1 -13.9080 40.5199 99 4 270
1956086S09062 1956 31 SI MM NOT_NAMED 1956-04-04 21:00:00 NR -13.9070 40.3367 main 0 0 _____P________ -1 -13.9070 40.3367 99 4 270
1956086S09062 1956 31 SI MM NOT_NAMED 1956-04-05 00:00:00 NR -13.9051 40.1562 main 0 0 _____P________ -1 -13.9051 40.1562 99 3 271
1956086S09062 1956 31 SI MM NOT_NAMED 1956-04-05 03:00:00 NR -13.9027 39.9776 main 0 0 _____P________ -1 -13.9027 39.9776 99 3 271
1956086S09062 1956 31 SI MM NOT_NAMED 1956-04-05 06:00:00 NR -13.9000 39.8000 reunion main 0 _____O________ -1 -13.9000 39.8000 99 9.90000 3 271

About IBTrACS Database

This database is a web-friendly format of International Best Track Archive for Climate Stewardship (IBTrACS), a global best track data archive curated by NOAA dating back to 1842.

Updated: 2021-12-08